sensor_id;sensor_type;location;lat;lon;timestamp;pressure;altitude;pressure_sealevel;temperature;humidity
49102;BME280;34913;47.520;19.186;2023-02-28T00:02:20;100967.38;;;-0.10;60.88
49102;BME280;34913;47.520;19.186;2023-02-28T00:04:46;100982.22;;;-0.12;60.54
49102;BME280;34913;47.520;19.186;2023-02-28T00:07:26;100980.38;;;-0.08;60.95
49102;BME280;34913;47.520;19.186;2023-02-28T00:09:51;100975.19;;;-0.10;61.11
49102;BME280;34913;47.520;19.186;2023-02-28T00:12:17;100990.69;;;-0.02;59.94
49102;BME280;34913;47.520;19.186;2023-02-28T00:14:42;100990.59;;;0.03;60.18
49102;BME280;34913;47.520;19.186;2023-02-28T00:17:08;101000.94;;;0.06;61.25
49102;BME280;34913;47.520;19.186;2023-02-28T00:19:33;101003.47;;;0.10;60.96
49102;BME280;34913;47.520;19.186;2023-02-28T00:21:58;100998.09;;;0.16;60.66
49102;BME280;34913;47.520;19.186;2023-02-28T00:24:24;101005.84;;;0.19;61.19
49102;BME280;34913;47.520;19.186;2023-02-28T00:26:49;101005.84;;;0.19;61.80
49102;BME280;34913;47.520;19.186;2023-02-28T00:29:15;101009.19;;;0.26;61.93
49102;BME280;34913;47.520;19.186;2023-02-28T00:31:40;101005.59;;;0.30;61.36
49102;BME280;34913;47.520;19.186;2023-02-28T00:34:06;101008.09;;;0.35;61.48
49102;BME280;34913;47.520;19.186;2023-02-28T00:36:31;101012.31;;;0.39;61.32
49102;BME280;34913;47.520;19.186;2023-02-28T00:38:56;101010.63;;;0.38;61.89
49102;BME280;34913;47.520;19.186;2023-02-28T00:41:22;101006.25;;;0.40;62.16
49102;BME280;34913;47.520;19.186;2023-02-28T00:43:47;101012.31;;;0.40;62.52
49102;BME280;34913;47.520;19.186;2023-02-28T00:46:13;101014.94;;;0.39;62.00
49102;BME280;34913;47.520;19.186;2023-02-28T00:48:38;101014.03;;;0.41;62.50
49102;BME280;34913;47.520;19.186;2023-02-28T00:51:04;101014.16;;;0.35;62.16
49102;BME280;34913;47.520;19.186;2023-02-28T00:53:29;101016.63;;;0.41;62.10
49102;BME280;34913;47.520;19.186;2023-02-28T00:55:55;101016.56;;;0.44;62.80
49102;BME280;34913;47.520;19.186;2023-02-28T00:58:20;101008.75;;;0.43;62.38
49102;BME280;34913;47.520;19.186;2023-02-28T01:00:46;101010.66;;;0.36;62.91
49102;BME280;34913;47.520;19.186;2023-02-28T01:03:18;101015.97;;;0.33;62.72
49102;BME280;34913;47.520;19.186;2023-02-28T01:05:44;101011.50;;;0.37;62.68
49102;BME280;34913;47.520;19.186;2023-02-28T01:08:10;101017.56;;;0.39;62.95
49102;BME280;34913;47.520;19.186;2023-02-28T01:10:35;101021.69;;;0.49;61.94
49102;BME280;34913;47.520;19.186;2023-02-28T01:13:02;101028.47;;;0.56;61.85
49102;BME280;34913;47.520;19.186;2023-02-28T01:15:28;101015.31;;;0.59;60.61
49102;BME280;34913;47.520;19.186;2023-02-28T01:17:53;101007.59;;;0.54;60.49
49102;BME280;34913;47.520;19.186;2023-02-28T01:20:19;101019.78;;;0.55;60.81
49102;BME280;34913;47.520;19.186;2023-02-28T01:22:44;101015.38;;;0.58;60.67
49102;BME280;34913;47.520;19.186;2023-02-28T01:25:10;101015.41;;;0.56;60.50
49102;BME280;34913;47.520;19.186;2023-02-28T01:27:35;101018.03;;;0.56;60.98
49102;BME280;34913;47.520;19.186;2023-02-28T01:30:02;101017.16;;;0.55;60.12
49102;BME280;34913;47.520;19.186;2023-02-28T01:32:28;101010.50;;;0.42;60.48
49102;BME280;34913;47.520;19.186;2023-02-28T01:34:53;101017.75;;;0.31;60.42
49102;BME280;34913;47.520;19.186;2023-02-28T01:37:19;101021.44;;;0.22;61.05
49102;BME280;34913;47.520;19.186;2023-02-28T01:39:44;101020.69;;;0.17;61.34
49102;BME280;34913;47.520;19.186;2023-02-28T01:42:10;101020.03;;;0.08;61.49
49102;BME280;34913;47.520;19.186;2023-02-28T01:47:42;101022.75;;;0.03;62.52
49102;BME280;34913;47.520;19.186;2023-02-28T01:50:19;101027.09;;;0.04;62.65
49102;BME280;34913;47.520;19.186;2023-02-28T01:52:47;101009.63;;;0.06;63.15
49102;BME280;34913;47.520;19.186;2023-02-28T01:55:15;101020.75;;;0.14;62.84
49102;BME280;34913;47.520;19.186;2023-02-28T01:57:50;101021.66;;;0.13;62.97
49102;BME280;34913;47.520;19.186;2023-02-28T02:00:21;101020.72;;;0.16;62.79
49102;BME280;34913;47.520;19.186;2023-02-28T02:02:51;101022.38;;;0.20;63.18
49102;BME280;34913;47.520;19.186;2023-02-28T02:05:20;101014.59;;;0.18;63.30
49102;BME280;34913;47.520;19.186;2023-02-28T02:07:49;101013.03;;;0.10;63.85
49102;BME280;34913;47.520;19.186;2023-02-28T02:13:13;101018.66;;;-0.09;64.78
49102;BME280;34913;47.520;19.186;2023-02-28T02:18:51;101019.47;;;-0.05;65.22
49102;BME280;34913;47.520;19.186;2023-02-28T02:34:41;101008.13;;;-0.04;65.52
49102;BME280;34913;47.520;19.186;2023-02-28T02:40:18;101008.81;;;0.04;64.66
49102;BME280;34913;47.520;19.186;2023-02-28T02:46:01;101008.91;;;0.01;64.69
49102;BME280;34913;47.520;19.186;2023-02-28T02:48:23;101007.19;;;0.00;64.79
49102;BME280;34913;47.520;19.186;2023-02-28T02:50:55;101013.25;;;0.01;64.71
49102;BME280;34913;47.520;19.186;2023-02-28T02:53:27;101007.91;;;0.05;64.74
49102;BME280;34913;47.520;19.186;2023-02-28T02:55:55;101006.03;;;0.12;64.56
49102;BME280;34913;47.520;19.186;2023-02-28T02:58:28;101007.56;;;0.20;64.35
49102;BME280;34913;47.520;19.186;2023-02-28T03:00:58;101007.50;;;0.22;64.08
49102;BME280;34913;47.520;19.186;2023-02-28T03:03:27;101008.38;;;0.22;62.86
49102;BME280;34913;47.520;19.186;2023-02-28T03:05:58;101002.97;;;0.30;63.50
49102;BME280;34913;47.520;19.186;2023-02-28T03:08:25;101012.38;;;0.37;63.10
49102;BME280;34913;47.520;19.186;2023-02-28T03:10:56;101011.34;;;0.44;62.62
49102;BME280;34913;47.520;19.186;2023-02-28T03:24:11;101020.44;;;0.64;62.84
49102;BME280;34913;47.520;19.186;2023-02-28T03:26:44;101021.31;;;0.63;63.12
49102;BME280;34913;47.520;19.186;2023-02-28T03:29:24;101027.38;;;0.65;63.53
49102;BME280;34913;47.520;19.186;2023-02-28T03:31:59;101015.41;;;0.54;63.12
49102;BME280;34913;47.520;19.186;2023-02-28T03:34:38;101023.25;;;0.56;62.98
49102;BME280;34913;47.520;19.186;2023-02-28T03:37:11;101020.72;;;0.51;63.23
49102;BME280;34913;47.520;19.186;2023-02-28T03:39:49;101017.19;;;0.54;63.56
49102;BME280;34913;47.520;19.186;2023-02-28T03:42:25;101015.41;;;0.56;63.50
49102;BME280;34913;47.520;19.186;2023-02-28T03:45:04;101023.06;;;0.64;62.79
49102;BME280;34913;47.520;19.186;2023-02-28T03:47:39;101021.44;;;0.58;63.33
49102;BME280;34913;47.520;19.186;2023-02-28T03:50:24;101016.09;;;0.63;63.57
49102;BME280;34913;47.520;19.186;2023-02-28T03:55:41;101026.44;;;0.67;63.29
49102;BME280;34913;47.520;19.186;2023-02-28T04:01:15;101028.22;;;0.65;63.75
49102;BME280;34913;47.520;19.186;2023-02-28T04:03:43;101028.47;;;0.54;63.70
49102;BME280;34913;47.520;19.186;2023-02-28T04:06:20;101019.03;;;0.50;63.61
49102;BME280;34913;47.520;19.186;2023-02-28T04:08:46;101022.41;;;0.54;64.46
49102;BME280;34913;47.520;19.186;2023-02-28T04:13:43;101012.00;;;0.52;65.05
49102;BME280;34913;47.520;19.186;2023-02-28T04:16:09;101013.97;;;0.43;65.21
49102;BME280;34913;47.520;19.186;2023-02-28T04:18:41;101015.06;;;0.34;65.59
49102;BME280;34913;47.520;19.186;2023-02-28T04:21:10;101015.94;;;0.35;65.89
49102;BME280;34913;47.520;19.186;2023-02-28T04:23:36;100981.50;;;0.19;65.66
49102;BME280;34913;47.520;19.186;2023-02-28T04:26:02;101011.47;;;0.38;66.29
49102;BME280;34913;47.520;19.186;2023-02-28T04:28:27;101011.41;;;0.41;65.79
49102;BME280;34913;47.520;19.186;2023-02-28T04:31:02;101000.88;;;0.44;65.62
49102;BME280;34913;47.520;19.186;2023-02-28T04:33:27;101000.78;;;0.49;65.48
49102;BME280;34913;47.520;19.186;2023-02-28T04:36:05;101005.06;;;0.51;64.92
49102;BME280;34913;47.520;19.186;2023-02-28T04:38:35;101014.66;;;0.51;65.40
49102;BME280;34913;47.520;19.186;2023-02-28T04:41:01;101006.72;;;0.54;65.80
49102;BME280;34913;47.520;19.186;2023-02-28T04:43:27;101006.56;;;0.60;65.35
49102;BME280;34913;47.520;19.186;2023-02-28T04:45:54;100996.94;;;0.62;65.24
49102;BME280;34913;47.520;19.186;2023-02-28T04:48:28;101004.72;;;0.65;65.33
49102;BME280;34913;47.520;19.186;2023-02-28T04:50:53;101007.53;;;0.58;64.75
49102;BME280;34913;47.520;19.186;2023-02-28T04:53:19;101004.97;;;0.54;64.65
49102;BME280;34913;47.520;19.186;2023-02-28T04:55:45;101006.56;;;0.60;64.90
49102;BME280;34913;47.520;19.186;2023-02-28T04:58:11;101007.19;;;0.70;65.24
49102;BME280;34913;47.520;19.186;2023-02-28T05:00:37;101002.75;;;0.73;64.87
49102;BME280;34913;47.520;19.186;2023-02-28T05:03:03;101005.44;;;0.70;64.61
49102;BME280;34913;47.520;19.186;2023-02-28T05:05:28;101009.09;;;0.65;64.65
49102;BME280;34913;47.520;19.186;2023-02-28T05:07:54;100989.81;;;0.69;65.14
49102;BME280;34913;47.520;19.186;2023-02-28T05:10:21;100998.44;;;0.72;64.68
49102;BME280;34913;47.520;19.186;2023-02-28T05:12:47;101004.53;;;0.73;64.63
49102;BME280;34913;47.520;19.186;2023-02-28T05:15:14;101001.72;;;0.79;64.64
49102;BME280;34913;47.520;19.186;2023-02-28T05:17:40;101006.94;;;0.80;64.18
49102;BME280;34913;47.520;19.186;2023-02-28T05:20:06;101009.69;;;0.74;64.63
49102;BME280;34913;47.520;19.186;2023-02-28T05:22:32;101014.25;;;0.66;64.53
49102;BME280;34913;47.520;19.186;2023-02-28T05:24:57;101013.31;;;0.69;63.74
49102;BME280;34913;47.520;19.186;2023-02-28T05:27:23;101020.06;;;0.77;63.84
49102;BME280;34913;47.520;19.186;2023-02-28T05:29:48;101020.06;;;0.77;64.43
49102;BME280;34913;47.520;19.186;2023-02-28T05:32:14;101010.66;;;0.72;64.14
49102;BME280;34913;47.520;19.186;2023-02-28T05:34:40;101017.41;;;0.79;63.68
49102;BME280;34913;47.520;19.186;2023-02-28T05:37:06;101020.25;;;0.71;63.71
49102;BME280;34913;47.520;19.186;2023-02-28T05:39:32;101026.56;;;0.61;63.35
49102;BME280;34913;47.520;19.186;2023-02-28T05:41:57;101025.84;;;0.56;63.89
49102;BME280;34913;47.520;19.186;2023-02-28T05:44:23;101023.78;;;0.69;64.10
49102;BME280;34913;47.520;19.186;2023-02-28T05:46:48;101023.84;;;0.66;63.32
49102;BME280;34913;47.520;19.186;2023-02-28T05:49:13;101030.72;;;0.70;63.46
49102;BME280;34913;47.520;19.186;2023-02-28T05:51:39;101030.66;;;0.73;62.78
49102;BME280;34913;47.520;19.186;2023-02-28T05:54:05;101030.66;;;0.73;62.59
49102;BME280;34913;47.520;19.186;2023-02-28T05:56:31;101028.88;;;0.73;62.66
49102;BME280;34913;47.520;19.186;2023-02-28T05:58:59;101035.03;;;0.72;62.13
49102;BME280;34913;47.520;19.186;2023-02-28T06:01:35;101032.31;;;0.75;62.14
49102;BME280;34913;47.520;19.186;2023-02-28T06:04:03;101040.97;;;0.77;61.73
49102;BME280;34913;47.520;19.186;2023-02-28T06:06:29;101040.06;;;0.80;61.67
49102;BME280;34913;47.520;19.186;2023-02-28T06:09:00;101043.72;;;0.73;62.44
49102;BME280;34913;47.520;19.186;2023-02-28T06:11:26;101040.91;;;0.79;61.91
49102;BME280;34913;47.520;19.186;2023-02-28T06:13:59;101045.13;;;0.84;62.12
49102;BME280;34913;47.520;19.186;2023-02-28T06:16:27;101043.31;;;0.88;62.11
49102;BME280;34913;47.520;19.186;2023-02-28T06:18:53;101052.91;;;0.88;62.02
49102;BME280;34913;47.520;19.186;2023-02-28T06:21:21;101046.09;;;0.82;61.50
49102;BME280;34913;47.520;19.186;2023-02-28T06:23:47;101056.97;;;0.99;61.54
49102;BME280;34913;47.520;19.186;2023-02-28T06:26:12;101058.63;;;1.02;61.47
49102;BME280;34913;47.520;19.186;2023-02-28T06:28:38;101054.34;;;0.99;60.59
49102;BME280;34913;47.520;19.186;2023-02-28T06:31:11;101059.69;;;0.95;61.14
49102;BME280;34913;47.520;19.186;2023-02-28T06:33:38;101056.09;;;0.99;61.54
49102;BME280;34913;47.520;19.186;2023-02-28T06:36:05;101056.00;;;1.02;61.88
49102;BME280;34913;47.520;19.186;2023-02-28T06:38:31;101052.44;;;1.06;61.53
49102;BME280;34913;47.520;19.186;2023-02-28T06:40:57;101056.88;;;1.02;60.27
49102;BME280;34913;47.520;19.186;2023-02-28T06:43:24;101062.97;;;1.03;61.13
49102;BME280;34913;47.520;19.186;2023-02-28T06:45:50;101057.28;;;1.20;60.34
49102;BME280;34913;47.520;19.186;2023-02-28T06:48:15;101066.00;;;1.20;60.49
49102;BME280;34913;47.520;19.186;2023-02-28T06:50:41;101059.94;;;1.18;60.28
49102;BME280;34913;47.520;19.186;2023-02-28T06:53:06;101065.59;;;1.35;60.09
49102;BME280;34913;47.520;19.186;2023-02-28T06:55:32;101058.41;;;1.42;59.39
49102;BME280;34913;47.520;19.186;2023-02-28T06:57:58;101057.75;;;1.34;58.95
49102;BME280;34913;47.520;19.186;2023-02-28T07:00:23;101063.88;;;1.34;59.85
49102;BME280;34913;47.520;19.186;2023-02-28T07:02:50;101062.69;;;1.14;58.30
49102;BME280;34913;47.520;19.186;2023-02-28T07:05:15;101066.91;;;1.19;60.26
49102;BME280;34913;47.520;19.186;2023-02-28T07:07:40;101070.13;;;1.29;58.95
49102;BME280;34913;47.520;19.186;2023-02-28T07:10:10;101069.25;;;1.28;59.05
49102;BME280;34913;47.520;19.186;2023-02-28T07:12:36;101073.44;;;1.34;58.51
49102;BME280;34913;47.520;19.186;2023-02-28T07:15:02;101072.56;;;1.35;58.93
49102;BME280;34913;47.520;19.186;2023-02-28T07:17:28;101080.38;;;1.36;58.42
49102;BME280;34913;47.520;19.186;2023-02-28T07:19:53;101086.41;;;1.38;58.38
49102;BME280;34913;47.520;19.186;2023-02-28T07:22:19;101085.13;;;1.53;57.74
49102;BME280;34913;47.520;19.186;2023-02-28T07:24:44;101092.59;;;1.67;56.82
49102;BME280;34913;47.520;19.186;2023-02-28T07:27:10;101089.88;;;1.70;56.49
49102;BME280;34913;47.520;19.186;2023-02-28T07:29:35;101090.06;;;1.64;55.71
49102;BME280;34913;47.520;19.186;2023-02-28T07:32:01;101091.97;;;1.59;56.59
49102;BME280;34913;47.520;19.186;2023-02-28T07:34:26;101089.88;;;1.70;56.57
49102;BME280;34913;47.520;19.186;2023-02-28T07:36:53;101084.44;;;1.78;55.76
49102;BME280;34913;47.520;19.186;2023-02-28T07:39:19;101089.53;;;1.82;56.23
49102;BME280;34913;47.520;19.186;2023-02-28T07:41:45;101095.31;;;1.93;55.45
49102;BME280;34913;47.520;19.186;2023-02-28T07:44:11;101084.75;;;1.96;55.90
49102;BME280;34913;47.520;19.186;2023-02-28T07:46:37;101090.88;;;1.95;55.34
49102;BME280;34913;47.520;19.186;2023-02-28T07:49:03;101095.03;;;2.03;54.55
49102;BME280;34913;47.520;19.186;2023-02-28T07:51:29;101087.22;;;2.01;55.19
49102;BME280;34913;47.520;19.186;2023-02-28T07:53:56;101094.53;;;2.19;54.57
49102;BME280;34913;47.520;19.186;2023-02-28T07:56:21;101098.25;;;2.40;54.20
49102;BME280;34913;47.520;19.186;2023-02-28T07:58:47;101092.41;;;2.59;53.87
49102;BME280;34913;47.520;19.186;2023-02-28T08:01:12;101097.22;;;2.72;52.97
49102;BME280;34913;47.520;19.186;2023-02-28T08:03:39;101093.25;;;2.87;53.03
49102;BME280;34913;47.520;19.186;2023-02-28T08:06:06;101094.44;;;3.03;52.87
49102;BME280;34913;47.520;19.186;2023-02-28T08:08:32;101101.28;;;3.07;51.78
49102;BME280;34913;47.520;19.186;2023-02-28T08:11:00;101105.31;;;2.93;51.27
49102;BME280;34913;47.520;19.186;2023-02-28T08:13:26;101096.97;;;2.80;51.46
49102;BME280;34913;47.520;19.186;2023-02-28T08:15:55;101096.78;;;2.86;51.78
49102;BME280;34913;47.520;19.186;2023-02-28T08:18:22;101091.50;;;2.60;52.02
49102;BME280;34913;47.520;19.186;2023-02-28T08:20:48;101099.97;;;2.69;51.73
49102;BME280;34913;47.520;19.186;2023-02-28T08:23:13;101096.91;;;2.82;51.64
49102;BME280;34913;47.520;19.186;2023-02-28T08:25:39;101098.44;;;2.89;51.75
49102;BME280;34913;47.520;19.186;2023-02-28T08:28:05;101105.00;;;3.02;51.38
49102;BME280;34913;47.520;19.186;2023-02-28T08:30:30;101098.78;;;3.04;50.07
49102;BME280;34913;47.520;19.186;2023-02-28T08:32:56;101097.19;;;3.25;50.81
49102;BME280;34913;47.520;19.186;2023-02-28T08:35:21;101092.69;;;3.29;50.62
49102;BME280;34913;47.520;19.186;2023-02-28T08:37:48;101101.94;;;3.39;51.11
49102;BME280;34913;47.520;19.186;2023-02-28T08:40:13;101101.94;;;3.39;49.18
49102;BME280;34913;47.520;19.186;2023-02-28T08:42:44;101100.66;;;3.26;50.02
49102;BME280;34913;47.520;19.186;2023-02-28T08:45:10;101095.09;;;3.35;50.06
49102;BME280;34913;47.520;19.186;2023-02-28T08:47:35;101095.28;;;3.54;50.26
49102;BME280;34913;47.520;19.186;2023-02-28T08:50:01;101095.00;;;3.61;49.91
49102;BME280;34913;47.520;19.186;2023-02-28T08:52:26;101091.19;;;3.70;49.17
49102;BME280;34913;47.520;19.186;2023-02-28T08:54:52;101096.06;;;3.81;48.78
49102;BME280;34913;47.520;19.186;2023-02-28T08:57:17;101093.81;;;3.93;49.79
49102;BME280;34913;47.520;19.186;2023-02-28T08:59:43;101091.31;;;3.67;48.61
49102;BME280;34913;47.520;19.186;2023-02-28T09:02:10;101088.34;;;3.76;48.93
49102;BME280;34913;47.520;19.186;2023-02-28T09:04:37;101087.31;;;3.57;49.61
49102;BME280;34913;47.520;19.186;2023-02-28T09:07:02;101095.13;;;3.58;49.99
49102;BME280;34913;47.520;19.186;2023-02-28T09:09:28;101076.28;;;3.71;51.09
49102;BME280;34913;47.520;19.186;2023-02-28T09:11:55;101089.53;;;3.68;50.30
49102;BME280;34913;47.520;19.186;2023-02-28T09:14:20;101087.78;;;3.91;49.78
49102;BME280;34913;47.520;19.186;2023-02-28T09:16:46;101084.72;;;4.02;48.79
49102;BME280;34913;47.520;19.186;2023-02-28T09:19:12;101094.84;;;4.13;49.68
49102;BME280;34913;47.520;19.186;2023-02-28T09:21:37;101088.19;;;4.26;48.58
49102;BME280;34913;47.520;19.186;2023-02-28T09:24:03;101095.34;;;3.99;49.42
49102;BME280;34913;47.520;19.186;2023-02-28T09:26:28;101097.63;;;4.08;49.16
49102;BME280;34913;47.520;19.186;2023-02-28T09:28:54;101093.78;;;4.17;50.31
49102;BME280;34913;47.520;19.186;2023-02-28T09:31:23;101091.25;;;4.37;49.54
49102;BME280;34913;47.520;19.186;2023-02-28T09:33:51;101095.03;;;4.30;51.92
49102;BME280;34913;47.520;19.186;2023-02-28T09:36:18;101099.59;;;4.25;49.14
49102;BME280;34913;47.520;19.186;2023-02-28T09:38:43;101099.13;;;4.37;50.58
49102;BME280;34913;47.520;19.186;2023-02-28T09:41:39;101103.72;;;4.32;51.35
49102;BME280;34913;47.520;19.186;2023-02-28T09:44:17;101092.97;;;4.38;51.01
49102;BME280;34913;47.520;19.186;2023-02-28T09:46:48;101089.97;;;4.47;51.15
49102;BME280;34913;47.520;19.186;2023-02-28T09:49:23;101086.84;;;4.60;49.85
49102;BME280;34913;47.520;19.186;2023-02-28T09:51:59;101093.03;;;4.59;50.03
49102;BME280;34913;47.520;19.186;2023-02-28T09:54:29;101088.19;;;4.70;49.99
49102;BME280;34913;47.520;19.186;2023-02-28T09:57:07;101093.13;;;4.78;49.58
49102;BME280;34913;47.520;19.186;2023-02-28T09:59:44;101087.78;;;4.37;49.91
49102;BME280;34913;47.520;19.186;2023-02-28T10:05:23;101079.75;;;4.84;49.81
49102;BME280;34913;47.520;19.186;2023-02-28T10:08:13;101077.09;;;5.04;48.77
49102;BME280;34913;47.520;19.186;2023-02-28T10:10:43;101073.38;;;5.10;49.29
49102;BME280;34913;47.520;19.186;2023-02-28T10:15:38;101081.19;;;4.91;49.50
49102;BME280;34913;47.520;19.186;2023-02-28T10:18:11;101073.16;;;4.94;49.40
49102;BME280;34913;47.520;19.186;2023-02-28T10:20:39;101072.44;;;4.90;48.81
49102;BME280;34913;47.520;19.186;2023-02-28T10:25:38;101060.59;;;5.00;49.88
49102;BME280;34913;47.520;19.186;2023-02-28T10:28:12;101070.47;;;4.95;48.56
49102;BME280;34913;47.520;19.186;2023-02-28T10:30:50;101064.44;;;5.14;48.76
49102;BME280;34913;47.520;19.186;2023-02-28T10:33:22;101063.38;;;5.38;48.19
49102;BME280;34913;47.520;19.186;2023-02-28T10:35:48;101063.81;;;5.48;47.94
49102;BME280;34913;47.520;19.186;2023-02-28T10:38:20;101055.50;;;5.57;47.22
49102;BME280;34913;47.520;19.186;2023-02-28T10:40:46;101063.19;;;5.80;47.28
49102;BME280;34913;47.520;19.186;2023-02-28T10:45:53;101048.28;;;5.60;47.38
49102;BME280;34913;47.520;19.186;2023-02-28T10:53:28;101043.00;;;6.00;48.25
49102;BME280;34913;47.520;19.186;2023-02-28T10:55:58;101039.28;;;6.23;46.69
49102;BME280;34913;47.520;19.186;2023-02-28T10:58:25;101034.72;;;6.26;47.81
49102;BME280;34913;47.520;19.186;2023-02-28T11:00:51;101042.09;;;6.01;46.77
49102;BME280;34913;47.520;19.186;2023-02-28T11:03:34;101033.03;;;6.06;47.11
49102;BME280;34913;47.520;19.186;2023-02-28T11:06:11;101041.09;;;6.03;47.38
49102;BME280;34913;47.520;19.186;2023-02-28T11:08:47;101035.09;;;6.00;47.30
49102;BME280;34913;47.520;19.186;2023-02-28T11:11:16;101030.16;;;5.73;48.11
49102;BME280;34913;47.520;19.186;2023-02-28T11:13:43;101036.22;;;5.36;47.84
49102;BME280;34913;47.520;19.186;2023-02-28T11:16:12;101039.88;;;5.33;48.07
49102;BME280;34913;47.520;19.186;2023-02-28T11:18:50;101042.41;;;5.35;49.13
49102;BME280;34913;47.520;19.186;2023-02-28T11:21:23;101036.00;;;5.80;49.04
49102;BME280;34913;47.520;19.186;2023-02-28T11:23:52;101033.53;;;5.77;49.79
49102;BME280;34913;47.520;19.186;2023-02-28T11:26:42;101030.47;;;6.05;48.12
49102;BME280;34913;47.520;19.186;2023-02-28T11:29:29;101030.03;;;6.14;48.71
49102;BME280;34913;47.520;19.186;2023-02-28T11:34:27;101017.63;;;6.52;47.98
49102;BME280;34913;47.520;19.186;2023-02-28T11:36:54;101031.06;;;6.65;46.53
49102;BME280;34913;47.520;19.186;2023-02-28T11:39:22;101016.78;;;6.69;46.08
49102;BME280;34913;47.520;19.186;2023-02-28T11:47:32;101016.00;;;6.13;48.04
49102;BME280;34913;47.520;19.186;2023-02-28T11:50:21;101019.28;;;5.62;48.38
49102;BME280;34913;47.520;19.186;2023-02-28T11:53:01;101012.94;;;5.47;50.59
49102;BME280;34913;47.520;19.186;2023-02-28T11:55:32;101012.34;;;5.59;50.60
49102;BME280;34913;47.520;19.186;2023-02-28T12:04:08;101002.00;;;6.48;48.72
49102;BME280;34913;47.520;19.186;2023-02-28T12:06:43;101007.63;;;6.59;47.85
49102;BME280;34913;47.520;19.186;2023-02-28T12:15:24;101007.06;;;6.87;47.52
49102;BME280;34913;47.520;19.186;2023-02-28T12:20:37;100993.09;;;6.33;49.73
49102;BME280;34913;47.520;19.186;2023-02-28T12:26:21;100984.56;;;6.45;49.17
49102;BME280;34913;47.520;19.186;2023-02-28T12:28:58;100984.38;;;6.31;49.70
49102;BME280;34913;47.520;19.186;2023-02-28T12:31:36;100976.09;;;6.21;49.95
49102;BME280;34913;47.520;19.186;2023-02-28T12:34:06;100981.47;;;6.37;49.18
49102;BME280;34913;47.520;19.186;2023-02-28T12:36:35;100969.13;;;6.20;48.98
49102;BME280;34913;47.520;19.186;2023-02-28T12:39:12;100975.31;;;6.19;49.29
49102;BME280;34913;47.520;19.186;2023-02-28T12:41:45;100975.53;;;6.14;49.61
49102;BME280;34913;47.520;19.186;2023-02-28T12:44:17;100974.69;;;6.31;50.26
49102;BME280;34913;47.520;19.186;2023-02-28T12:46:48;100967.81;;;6.46;49.45
49102;BME280;34913;47.520;19.186;2023-02-28T12:51:46;100961.75;;;6.79;48.49
49102;BME280;34913;47.520;19.186;2023-02-28T12:54:23;100968.66;;;6.47;48.47
49102;BME280;34913;47.520;19.186;2023-02-28T12:59:40;100966.34;;;6.40;49.50
49102;BME280;34913;47.520;19.186;2023-02-28T13:05:27;100962.63;;;6.62;49.52
49102;BME280;34913;47.520;19.186;2023-02-28T13:10:45;100956.88;;;6.71;49.03
49102;BME280;34913;47.520;19.186;2023-02-28T13:13:15;100957.03;;;6.33;49.27
49102;BME280;34913;47.520;19.186;2023-02-28T13:15:57;100962.97;;;6.02;50.73
49102;BME280;34913;47.520;19.186;2023-02-28T13:18:41;100962.50;;;6.11;49.62
49102;BME280;34913;47.520;19.186;2023-02-28T13:21:25;100958.78;;;6.15;49.94
49102;BME280;34913;47.520;19.186;2023-02-28T13:34:38;100949.28;;;6.65;48.98
49102;BME280;34913;47.520;19.186;2023-02-28T13:47:54;100935.31;;;6.11;50.46
49102;BME280;34913;47.520;19.186;2023-02-28T14:01:29;100924.13;;;6.06;51.61
49102;BME280;34913;47.520;19.186;2023-02-28T14:06:52;100908.31;;;6.23;50.77
49102;BME280;34913;47.520;19.186;2023-02-28T14:11:51;100916.59;;;6.15;50.01
49102;BME280;34913;47.520;19.186;2023-02-28T14:17:07;100914.69;;;6.02;50.61
49102;BME280;34913;47.520;19.186;2023-02-28T14:19:36;100917.31;;;6.02;50.76
49102;BME280;34913;47.520;19.186;2023-02-28T14:27:21;100913.50;;;6.07;49.79
49102;BME280;34913;47.520;19.186;2023-02-28T14:37:52;100919.69;;;5.70;50.95
49102;BME280;34913;47.520;19.186;2023-02-28T14:43:00;100909.41;;;5.83;51.50
49102;BME280;34913;47.520;19.186;2023-02-28T14:45:28;100917.81;;;5.72;51.88
49102;BME280;34913;47.520;19.186;2023-02-28T14:47:56;100915.34;;;5.69;52.85
49102;BME280;34913;47.520;19.186;2023-02-28T14:50:24;100912.00;;;5.66;52.35
49102;BME280;34913;47.520;19.186;2023-02-28T14:52:53;100909.06;;;5.53;52.84
49102;BME280;34913;47.520;19.186;2023-02-28T14:55:32;100914.91;;;5.59;53.93
49102;BME280;34913;47.520;19.186;2023-02-28T14:58:01;100916.50;;;5.64;53.02
49102;BME280;34913;47.520;19.186;2023-02-28T15:00:36;100911.22;;;5.64;53.14
49102;BME280;34913;47.520;19.186;2023-02-28T15:03:38;100923.09;;;5.72;53.67
49102;BME280;34913;47.520;19.186;2023-02-28T15:06:14;100913.28;;;5.57;53.47
49102;BME280;34913;47.520;19.186;2023-02-28T15:08:40;100919.00;;;5.48;53.00
49102;BME280;34913;47.520;19.186;2023-02-28T15:11:08;100920.56;;;5.33;53.74
49102;BME280;34913;47.520;19.186;2023-02-28T15:13:43;100923.72;;;5.21;54.62
49102;BME280;34913;47.520;19.186;2023-02-28T15:16:22;100926.00;;;5.28;55.31
49102;BME280;34913;47.520;19.186;2023-02-28T15:19:04;100928.38;;;5.16;54.39
49102;BME280;34913;47.520;19.186;2023-02-28T15:21:34;100926.25;;;5.24;54.43
49102;BME280;34913;47.520;19.186;2023-02-28T15:24:12;100933.25;;;5.04;54.50
49102;BME280;34913;47.520;19.186;2023-02-28T15:26:43;100929.84;;;5.02;55.54
49102;BME280;34913;47.520;19.186;2023-02-28T15:29:17;100920.25;;;5.01;55.78
49102;BME280;34913;47.520;19.186;2023-02-28T15:31:47;100926.72;;;5.13;55.59
49102;BME280;34913;47.520;19.186;2023-02-28T15:34:19;100917.69;;;5.19;55.77
49102;BME280;34913;47.520;19.186;2023-02-28T15:36:46;100917.06;;;5.14;55.42
49102;BME280;34913;47.520;19.186;2023-02-28T15:39:23;100923.03;;;5.17;55.84